Time;durP1;ratioP1;P1;durP2;ratioP2;P2;SDS_P1;SDS_P2;PMS_P1;PMS_P2;Temp;Humidity;BMP_temperature;BMP_pressure;BME280_temperature;BME280_humidity;BME280_pressure;Samples;Min_cycle;Max_cycle;Signal;HPM_P1;HPM_P2
2023/07/06 00:01:40;;;;;;;6.78;5.35;;;;;;;;;;5048498;28;20025;-76
2023/07/06 00:04:05;;;;;;;6.28;4.80;;;;;;;;;;5048329;28;20050;-79
2023/07/06 00:06:32;;;;;;;8.90;5.70;;;;;;;;;;5045780;28;20056;-77
2023/07/06 00:08:58;;;;;;;12.70;5.22;;;;;;;;;;5047739;28;20028;-78
2023/07/06 00:11:26;;;;;;;8.25;5.35;;;;;;;;;;5047953;28;20079;-77
2023/07/06 00:13:52;;;;;;;7.45;4.95;;;;;;;;;;5055515;28;20032;-76
2023/07/06 00:16:17;;;;;;;8.52;5.30;;;;;;;;;;5065317;28;20115;-78
2023/07/06 00:18:43;;;;;;;6.35;4.97;;;;;;;;;;5061835;28;20059;-77
2023/07/06 00:21:08;;;;;;;5.95;5.28;;;;;;;;;;5049439;28;20458;-78
2023/07/06 00:23:33;;;;;;;7.65;5.20;;;;;;;;;;5059188;28;20435;-77
2023/07/06 00:25:59;;;;;;;8.52;5.78;;;;;;;;;;5052441;28;20025;-76
2023/07/06 00:28:26;;;;;;;8.00;5.70;;;;;;;;;;5047070;28;20412;-76
2023/07/06 00:33:18;;;;;;;11.60;5.15;;;;;;;;;;5052704;28;20071;-79
2023/07/06 00:35:44;;;;;;;6.22;4.82;;;;;;;;;;5060571;28;20024;-78
2023/07/06 00:38:14;;;;;;;9.38;5.30;;;;;;;;;;5057546;28;20032;-83
2023/07/06 00:40:40;;;;;;;6.38;5.10;;;;;;;;;;5056970;28;20110;-79
2023/07/06 00:43:10;;;;;;;10.52;5.53;;;;;;;;;;5063060;28;20079;-77
2023/07/06 00:45:37;;;;;;;7.25;5.30;;;;;;;;;;5055528;28;20032;-76
2023/07/06 00:48:03;;;;;;;7.28;5.65;;;;;;;;;;5059978;28;20020;-77
2023/07/06 00:50:33;;;;;;;6.05;5.20;;;;;;;;;;5064515;28;20082;-77
2023/07/06 00:53:06;;;;;;;7.78;5.20;;;;;;;;;;5080991;28;21084;-76
2023/07/06 00:55:33;;;;;;;9.38;5.43;;;;;;;;;;5079819;28;20024;-77
2023/07/06 00:58:07;;;;;;;5.85;5.25;;;;;;;;;;5063894;28;20024;-75
2023/07/06 01:00:32;;;;;;;6.53;5.20;;;;;;;;;;5064998;28;20673;-75
2023/07/06 01:03:01;;;;;;;5.97;5.10;;;;;;;;;;5062518;28;20028;-75
2023/07/06 01:05:28;;;;;;;6.47;4.90;;;;;;;;;;5064759;28;20024;-77
2023/07/06 01:07:56;;;;;;;9.68;6.05;;;;;;;;;;5061976;28;20056;-79
2023/07/06 01:10:21;;;;;;;8.15;6.32;;;;;;;;;;5064561;28;20020;-77
2023/07/06 01:12:46;;;;;;;7.75;6.03;;;;;;;;;;5063001;28;20029;-77
2023/07/06 01:15:12;;;;;;;8.68;5.97;;;;;;;;;;5064014;28;20047;-77
2023/07/06 01:17:47;;;;;;;11.23;5.43;;;;;;;;;;5050439;28;20029;-76
2023/07/06 01:20:32;;;;;;;5.55;4.97;;;;;;;;;;5056382;28;20141;-77
2023/07/06 01:23:01;;;;;;;6.90;5.55;;;;;;;;;;5051676;28;20052;-78
2023/07/06 01:25:40;;;;;;;7.13;5.53;;;;;;;;;;5065083;28;20359;-76
2023/07/06 01:28:21;;;;;;;6.68;5.30;;;;;;;;;;5064242;28;20028;-78
2023/07/06 01:31:05;;;;;;;9.88;5.95;;;;;;;;;;5061563;28;20043;-78
2023/07/06 01:33:43;;;;;;;5.90;5.28;;;;;;;;;;5055934;28;20021;-77
2023/07/06 01:36:08;;;;;;;7.45;6.75;;;;;;;;;;5060689;28;20028;-79
2023/07/06 01:38:34;;;;;;;7.43;6.65;;;;;;;;;;5054981;28;20503;-77
2023/07/06 01:40:59;;;;;;;8.43;7.10;;;;;;;;;;5063881;28;20020;-77
2023/07/06 01:43:25;;;;;;;10.80;6.60;;;;;;;;;;5058860;28;20028;-77
2023/07/06 01:45:51;;;;;;;8.68;7.05;;;;;;;;;;5053247;28;20824;-76
2023/07/06 01:48:17;;;;;;;8.23;7.32;;;;;;;;;;5053426;28;20465;-76
2023/07/06 01:50:48;;;;;;;9.02;6.68;;;;;;;;;;5054092;28;20044;-77
2023/07/06 01:53:25;;;;;;;12.23;7.32;;;;;;;;;;5063973;28;20036;-77
2023/07/06 01:55:54;;;;;;;8.57;6.68;;;;;;;;;;5062408;28;20051;-77
2023/07/06 01:58:26;;;;;;;8.07;6.60;;;;;;;;;;5076898;28;20055;-77
2023/07/06 02:01:15;;;;;;;10.18;7.32;;;;;;;;;;5050169;28;20028;-78
2023/07/06 02:03:41;;;;;;;6.68;6.03;;;;;;;;;;5049398;28;20044;-79
2023/07/06 02:06:08;;;;;;;7.28;6.25;;;;;;;;;;5055672;28;20052;-78
2023/07/06 02:08:33;;;;;;;8.57;6.50;;;;;;;;;;5064165;28;20463;-78
2023/07/06 02:11:01;;;;;;;7.45;6.75;;;;;;;;;;5063698;28;20024;-76
2023/07/06 02:13:26;;;;;;;9.02;6.72;;;;;;;;;;5061237;28;20020;-79
2023/07/06 02:15:52;;;;;;;12.07;6.72;;;;;;;;;;5052747;28;20463;-79
2023/07/06 02:18:17;;;;;;;6.95;6.30;;;;;;;;;;5053756;28;20059;-79
2023/07/06 02:20:45;;;;;;;8.10;7.30;;;;;;;;;;5053206;28;20036;-77
2023/07/06 02:23:11;;;;;;;7.90;7.00;;;;;;;;;;5053028;28;20028;-79
2023/07/06 02:25:37;;;;;;;8.65;7.40;;;;;;;;;;5050612;28;20470;-76
2023/07/06 02:28:02;;;;;;;8.30;7.50;;;;;;;;;;5049178;28;20034;-74
2023/07/06 02:30:28;;;;;;;11.02;7.00;;;;;;;;;;5061417;28;20020;-74
2023/07/06 02:32:54;;;;;;;9.98;7.45;;;;;;;;;;5051960;28;20032;-77
2023/07/06 02:35:19;;;;;;;7.80;6.82;;;;;;;;;;5061731;28;20032;-74
2023/07/06 02:37:44;;;;;;;7.18;6.45;;;;;;;;;;5060583;28;20085;-76
2023/07/06 02:40:10;;;;;;;9.95;6.85;;;;;;;;;;5051628;28;20032;-75
2023/07/06 02:42:36;;;;;;;7.93;6.75;;;;;;;;;;5061446;28;20031;-73
2023/07/06 02:45:04;;;;;;;7.75;7.05;;;;;;;;;;5061348;28;20036;-74
2023/07/06 02:47:29;;;;;;;9.38;6.82;;;;;;;;;;5048836;28;20024;-76
2023/07/06 02:49:55;;;;;;;7.95;7.25;;;;;;;;;;5058612;28;20379;-74
2023/07/06 02:52:20;;;;;;;8.68;7.13;;;;;;;;;;5054034;28;20039;-74
2023/07/06 02:54:47;;;;;;;8.25;6.78;;;;;;;;;;5048025;28;20025;-74
2023/07/06 02:57:12;;;;;;;12.02;7.90;;;;;;;;;;5053601;28;20366;-74
2023/07/06 02:59:38;;;;;;;11.93;7.20;;;;;;;;;;5050537;28;20454;-76
2023/07/06 03:02:03;;;;;;;9.00;7.07;;;;;;;;;;5052372;28;20454;-74
2023/07/06 03:04:29;;;;;;;13.10;6.32;;;;;;;;;;5060500;28;20061;-75
2023/07/06 03:06:55;;;;;;;9.70;5.95;;;;;;;;;;5050422;28;20040;-74
2023/07/06 03:09:21;;;;;;;6.32;5.63;;;;;;;;;;5061436;28;20040;-74
2023/07/06 03:11:47;;;;;;;5.85;5.15;;;;;;;;;;5060518;28;20366;-74
2023/07/06 03:14:12;;;;;;;12.27;5.75;;;;;;;;;;5060542;28;20037;-74
2023/07/06 03:16:41;;;;;;;7.20;5.05;;;;;;;;;;5053149;28;20462;-74
2023/07/06 03:19:10;;;;;;;7.95;5.78;;;;;;;;;;5055699;28;20028;-74
2023/07/06 03:21:39;;;;;;;5.43;4.88;;;;;;;;;;5052334;28;20166;-75
2023/07/06 03:24:08;;;;;;;13.00;5.72;;;;;;;;;;5060484;28;20101;-75
2023/07/06 03:26:34;;;;;;;7.63;5.10;;;;;;;;;;5059723;28;20036;-74
2023/07/06 03:29:00;;;;;;;8.50;5.13;;;;;;;;;;5059176;28;20060;-76
2023/07/06 03:31:25;;;;;;;6.43;5.05;;;;;;;;;;5054314;28;20098;-75
2023/07/06 03:33:52;;;;;;;5.75;5.03;;;;;;;;;;5050419;28;20357;-75
2023/07/06 03:36:17;;;;;;;6.43;4.95;;;;;;;;;;5060140;28;20082;-73
2023/07/06 03:38:42;;;;;;;10.30;5.80;;;;;;;;;;5059865;28;20388;-73
2023/07/06 03:41:08;;;;;;;9.73;5.65;;;;;;;;;;5059882;28;20024;-73
2023/07/06 03:43:33;;;;;;;9.13;4.95;;;;;;;;;;5060520;28;20024;-73
2023/07/06 03:45:59;;;;;;;9.63;5.43;;;;;;;;;;5056610;28;20032;-73
2023/07/06 03:48:26;;;;;;;6.53;5.03;;;;;;;;;;5053095;28;20024;-73
2023/07/06 03:50:52;;;;;;;8.80;5.50;;;;;;;;;;5059939;28;20035;-74
2023/07/06 03:53:21;;;;;;;9.07;5.32;;;;;;;;;;5050440;28;20025;-73
2023/07/06 03:55:47;;;;;;;7.13;6.28;;;;;;;;;;5059994;28;20029;-74
2023/07/06 03:58:12;;;;;;;9.27;5.97;;;;;;;;;;5059571;28;20043;-73
2023/07/06 04:00:38;;;;;;;10.88;6.35;;;;;;;;;;5058125;28;20047;-73
2023/07/06 04:03:04;;;;;;;9.23;6.10;;;;;;;;;;5051608;28;20029;-73
2023/07/06 04:05:32;;;;;;;8.50;5.57;;;;;;;;;;5050851;28;20028;-72
2023/07/06 04:08:03;;;;;;;10.07;6.18;;;;;;;;;;5042120;28;21163;-74
2023/07/06 04:10:29;;;;;;;9.85;6.15;;;;;;;;;;5046187;28;20032;-73
2023/07/06 04:12:54;;;;;;;6.95;6.25;;;;;;;;;;5041890;28;20397;-74
2023/07/06 04:15:21;;;;;;;9.23;6.10;;;;;;;;;;5045158;28;20024;-74
2023/07/06 04:17:52;;;;;;;9.55;6.30;;;;;;;;;;5044026;28;20352;-75
2023/07/06 04:20:19;;;;;;;12.52;6.03;;;;;;;;;;5050925;28;20436;-74
2023/07/06 04:22:47;;;;;;;7.50;5.78;;;;;;;;;;5059667;28;20021;-74
2023/07/06 04:25:15;;;;;;;10.77;5.80;;;;;;;;;;5058332;28;20044;-75
2023/07/06 04:27:40;;;;;;;8.98;6.63;;;;;;;;;;5060418;28;20036;-73
2023/07/06 04:30:06;;;;;;;11.45;6.55;;;;;;;;;;5057532;28;20028;-73
2023/07/06 04:32:33;;;;;;;7.00;6.30;;;;;;;;;;5046826;28;20101;-72
2023/07/06 04:34:58;;;;;;;11.38;7.97;;;;;;;;;;5059382;28;20028;-71
2023/07/06 04:37:24;;;;;;;8.38;7.03;;;;;;;;;;5059182;28;20025;-73
2023/07/06 04:39:49;;;;;;;9.32;7.40;;;;;;;;;;5048292;28;20053;-72
2023/07/06 04:42:14;;;;;;;9.48;6.80;;;;;;;;;;5049849;28;20043;-73
2023/07/06 04:44:40;;;;;;;8.98;6.60;;;;;;;;;;5055070;28;20031;-72
2023/07/06 04:47:05;;;;;;;12.57;7.30;;;;;;;;;;5044685;28;20036;-72
2023/07/06 04:49:31;;;;;;;8.85;7.00;;;;;;;;;;5052137;28;20025;-71
2023/07/06 04:51:56;;;;;;;8.32;7.53;;;;;;;;;;5052294;28;20041;-72
2023/07/06 04:54:21;;;;;;;12.02;7.70;;;;;;;;;;5044365;28;20229;-76
2023/07/06 04:56:47;;;;;;;8.07;6.85;;;;;;;;;;5048817;28;20020;-72
2023/07/06 04:59:12;;;;;;;9.80;7.28;;;;;;;;;;5050983;28;20381;-73
2023/07/06 05:01:38;;;;;;;13.98;7.20;;;;;;;;;;5056348;28;20099;-76
2023/07/06 05:04:03;;;;;;;7.38;6.68;;;;;;;;;;5060526;28;20076;-73
2023/07/06 05:06:29;;;;;;;7.93;7.07;;;;;;;;;;5059897;28;20056;-74
2023/07/06 05:08:54;;;;;;;8.65;7.30;;;;;;;;;;5058794;28;20032;-74
2023/07/06 05:11:20;;;;;;;8.27;7.47;;;;;;;;;;5059478;28;20032;-74
2023/07/06 05:13:45;;;;;;;8.60;7.68;;;;;;;;;;5059577;28;20032;-77
2023/07/06 05:16:11;;;;;;;8.93;8.02;;;;;;;;;;5059317;28;20024;-73
2023/07/06 05:18:36;;;;;;;9.15;8.10;;;;;;;;;;5059720;28;20351;-77
2023/07/06 05:21:02;;;;;;;11.32;7.45;;;;;;;;;;5058994;28;20017;-75
2023/07/06 05:23:28;;;;;;;7.97;7.28;;;;;;;;;;5059923;28;20079;-74
2023/07/06 05:25:54;;;;;;;12.35;6.68;;;;;;;;;;5062445;28;20020;-73
2023/07/06 05:28:20;;;;;;;7.55;6.85;;;;;;;;;;5061093;28;20028;-74
2023/07/06 05:30:46;;;;;;;8.70;7.82;;;;;;;;;;5061145;28;20447;-74
2023/07/06 05:33:12;;;;;;;9.55;8.55;;;;;;;;;;5062638;28;20032;-75
2023/07/06 05:35:38;;;;;;;10.35;9.32;;;;;;;;;;5061969;28;20038;-76
2023/07/06 05:38:03;;;;;;;11.18;9.80;;;;;;;;;;5063075;28;20024;-74
2023/07/06 05:40:29;;;;;;;10.07;8.55;;;;;;;;;;5063613;28;20336;-73
2023/07/06 05:42:54;;;;;;;17.35;10.13;;;;;;;;;;5061151;28;20028;-75
2023/07/06 05:45:20;;;;;;;9.23;8.30;;;;;;;;;;5064395;28;20055;-76
2023/07/06 05:47:46;;;;;;;8.52;7.63;;;;;;;;;;5064016;28;20025;-73
2023/07/06 05:50:11;;;;;;;9.48;6.70;;;;;;;;;;5064066;28;20759;-74
2023/07/06 05:52:36;;;;;;;6.70;6.10;;;;;;;;;;5061739;28;20519;-76
2023/07/06 05:55:02;;;;;;;6.70;5.85;;;;;;;;;;5063862;28;20042;-74
2023/07/06 05:57:27;;;;;;;8.25;5.63;;;;;;;;;;5063692;28;20035;-76
2023/07/06 05:59:53;;;;;;;7.88;6.28;;;;;;;;;;5062290;28;20020;-75
2023/07/06 06:02:20;;;;;;;7.90;6.95;;;;;;;;;;5062214;28;20024;-73
2023/07/06 06:04:47;;;;;;;8.48;6.93;;;;;;;;;;5051303;28;20031;-75
2023/07/06 06:07:12;;;;;;;11.38;6.80;;;;;;;;;;5058152;28;20055;-73
2023/07/06 06:09:38;;;;;;;7.50;6.70;;;;;;;;;;5061363;28;20012;-73
2023/07/06 06:12:04;;;;;;;7.95;6.93;;;;;;;;;;5059929;28;20367;-73
2023/07/06 06:14:30;;;;;;;6.93;6.20;;;;;;;;;;5060978;28;20032;-73
2023/07/06 06:16:56;;;;;;;8.60;6.45;;;;;;;;;;5061612;28;20024;-72
2023/07/06 06:19:21;;;;;;;6.57;6.07;;;;;;;;;;5061796;28;20031;-72
2023/07/06 06:21:49;;;;;;;7.85;6.53;;;;;;;;;;5061559;28;20032;-73
2023/07/06 06:24:14;;;;;;;6.88;5.93;;;;;;;;;;5061983;28;20037;-73
2023/07/06 06:26:42;;;;;;;7.70;5.78;;;;;;;;;;5062001;28;20420;-73
2023/07/06 06:29:09;;;;;;;6.70;6.00;;;;;;;;;;5062053;28;20020;-73
2023/07/06 06:31:35;;;;;;;9.63;5.97;;;;;;;;;;5061766;28;20440;-73
2023/07/06 06:34:00;;;;;;;9.40;5.88;;;;;;;;;;5061104;28;20024;-75
2023/07/06 06:36:26;;;;;;;6.10;5.55;;;;;;;;;;5060806;28;20032;-74
2023/07/06 06:38:51;;;;;;;7.25;5.43;;;;;;;;;;5060991;28;20118;-76
2023/07/06 06:41:16;;;;;;;5.85;5.35;;;;;;;;;;5062607;28;20114;-74
2023/07/06 06:43:44;;;;;;;7.18;4.78;;;;;;;;;;5059663;28;20397;-76
2023/07/06 06:46:09;;;;;;;4.63;4.22;;;;;;;;;;5060647;28;20085;-73
2023/07/06 06:48:35;;;;;;;5.00;4.40;;;;;;;;;;5077972;28;20028;-72
2023/07/06 06:51:01;;;;;;;6.15;4.05;;;;;;;;;;5061776;28;20025;-74
2023/07/06 06:53:27;;;;;;;4.40;4.00;;;;;;;;;;5061092;28;20021;-76
2023/07/06 06:55:53;;;;;;;7.00;3.65;;;;;;;;;;5062162;28;20759;-75
2023/07/06 06:58:20;;;;;;;4.57;4.18;;;;;;;;;;5061901;28;20440;-74
2023/07/06 07:00:46;;;;;;;4.72;4.28;;;;;;;;;;5062331;28;20035;-74
2023/07/06 07:03:13;;;;;;;4.40;3.78;;;;;;;;;;5061233;28;20025;-74
2023/07/06 07:05:39;;;;;;;4.53;4.13;;;;;;;;;;5061411;28;20086;-74
2023/07/06 07:08:04;;;;;;;4.35;3.85;;;;;;;;;;5060285;28;20056;-72
2023/07/06 07:10:30;;;;;;;4.90;4.00;;;;;;;;;;5060465;28;20016;-75
2023/07/06 07:12:55;;;;;;;4.18;3.72;;;;;;;;;;5060133;28;20064;-73
2023/07/06 07:15:21;;;;;;;5.80;3.83;;;;;;;;;;5060393;28;20027;-74
2023/07/06 07:17:46;;;;;;;5.22;4.20;;;;;;;;;;5059701;28;20474;-75
2023/07/06 07:20:13;;;;;;;10.02;4.90;;;;;;;;;;5060597;28;20035;-73
2023/07/06 07:22:39;;;;;;;5.38;4.55;;;;;;;;;;5077655;28;20488;-74
2023/07/06 07:25:05;;;;;;;4.60;4.07;;;;;;;;;;5061556;28;20040;-73
2023/07/06 07:27:30;;;;;;;4.38;3.97;;;;;;;;;;5057347;28;20359;-74
2023/07/06 07:29:58;;;;;;;6.20;4.68;;;;;;;;;;5058748;28;20037;-74
2023/07/06 07:32:23;;;;;;;5.97;5.05;;;;;;;;;;5061178;28;21056;-75
2023/07/06 07:34:52;;;;;;;4.85;4.45;;;;;;;;;;5058946;28;20501;-74
2023/07/06 07:37:18;;;;;;;6.57;5.30;;;;;;;;;;5061803;28;20505;-74
2023/07/06 07:39:45;;;;;;;5.35;4.22;;;;;;;;;;5059735;28;20016;-73
2023/07/06 07:42:11;;;;;;;4.93;4.40;;;;;;;;;;5059890;28;20115;-75
2023/07/06 07:44:37;;;;;;;9.07;4.68;;;;;;;;;;5058953;28;20521;-74
2023/07/06 07:47:03;;;;;;;5.35;4.10;;;;;;;;;;5057960;28;20025;-75
2023/07/06 07:49:28;;;;;;;5.60;4.15;;;;;;;;;;5060000;28;20031;-73
2023/07/06 07:51:53;;;;;;;4.63;4.22;;;;;;;;;;5060309;28;20119;-74
2023/07/06 07:54:19;;;;;;;5.35;4.10;;;;;;;;;;5058959;28;20043;-74
2023/07/06 07:56:44;;;;;;;5.53;4.97;;;;;;;;;;5059920;28;20032;-76
2023/07/06 07:59:10;;;;;;;5.70;4.43;;;;;;;;;;5060648;28;20036;-75
2023/07/06 08:01:35;;;;;;;6.68;4.03;;;;;;;;;;5059825;28;20355;-76
2023/07/06 08:04:02;;;;;;;4.63;3.63;;;;;;;;;;5057907;28;20496;-73
2023/07/06 08:06:28;;;;;;;3.88;3.58;;;;;;;;;;5060538;28;20059;-74
2023/07/06 08:08:53;;;;;;;3.60;3.30;;;;;;;;;;5059560;28;20473;-75
2023/07/06 08:11:22;;;;;;;3.95;3.50;;;;;;;;;;5060357;28;20029;-74
2023/07/06 08:13:50;;;;;;;;;;;;;;;;;;5060695;28;20026;-74
2023/07/06 08:16:16;;;;;;;5.37;3.30;;;;;;;;;;5059006;28;19964;-77
2023/07/06 08:18:42;;;;;;;3.90;3.60;;;;;;;;;;5058279;28;20024;-75
2023/07/06 08:21:08;;;;;;;3.75;3.45;;;;;;;;;;5059628;28;20017;-75
2023/07/06 08:23:34;;;;;;;4.57;3.40;;;;;;;;;;5058437;28;20078;-74
2023/07/06 08:26:03;;;;;;;3.03;2.83;;;;;;;;;;5058626;28;20036;-75
2023/07/06 08:28:31;;;;;;;3.83;3.53;;;;;;;;;;5059600;28;20035;-75
2023/07/06 08:31:01;;;;;;;3.35;3.15;;;;;;;;;;5060385;28;20107;-75
2023/07/06 08:33:26;;;;;;;3.78;3.47;;;;;;;;;;5060385;28;20110;-75
2023/07/06 08:35:52;;;;;;;5.57;3.40;;;;;;;;;;5058862;28;20164;-74
2023/07/06 08:38:17;;;;;;;3.65;3.35;;;;;;;;;;5060340;28;20020;-75
2023/07/06 08:40:47;;;;;;;3.55;3.20;;;;;;;;;;5059940;28;20893;-75
2023/07/06 08:43:18;;;;;;;3.30;3.00;;;;;;;;;;5060157;28;20040;-73
2023/07/06 08:45:46;;;;;;;3.47;3.17;;;;;;;;;;5060738;28;20104;-73
2023/07/06 08:48:13;;;;;;;3.38;3.08;;;;;;;;;;5056591;28;20032;-76
2023/07/06 08:50:39;;;;;;;3.03;2.80;;;;;;;;;;5059396;28;20029;-75
2023/07/06 08:53:05;;;;;;;3.65;2.78;;;;;;;;;;5059633;28;20111;-74
2023/07/06 08:55:30;;;;;;;3.47;3.17;;;;;;;;;;5057860;28;20519;-74
2023/07/06 08:57:56;;;;;;;6.63;2.80;;;;;;;;;;5061006;28;20021;-76
2023/07/06 09:00:25;;;;;;;2.65;2.45;;;;;;;;;;5063613;28;20020;-75
2023/07/06 09:02:50;;;;;;;;;;;;;;;;;;5063028;28;20042;-73
2023/07/06 09:05:16;;;;;;;3.20;2.40;;;;;;;;;;5063036;28;19920;-74
2023/07/06 09:07:43;;;;;;;4.35;2.55;;;;;;;;;;5063410;28;20732;-75
2023/07/06 09:10:12;;;;;;;2.38;2.25;;;;;;;;;;5064008;28;21395;-75
2023/07/06 09:12:39;;;;;;;3.78;2.47;;;;;;;;;;5061828;28;20028;-75
2023/07/06 09:15:08;;;;;;;2.40;2.20;;;;;;;;;;5060789;28;20355;-75
2023/07/06 09:17:34;;;;;;;2.40;2.20;;;;;;;;;;5063595;28;20029;-75
2023/07/06 09:20:01;;;;;;;2.47;2.28;;;;;;;;;;5062150;28;20032;-74
2023/07/06 09:22:27;;;;;;;2.40;2.20;;;;;;;;;;5061455;28;20058;-75
2023/07/06 09:24:52;;;;;;;3.28;2.30;;;;;;;;;;5063891;28;20036;-74
2023/07/06 09:27:21;;;;;;;2.10;1.70;;;;;;;;;;5058823;28;20070;-75
2023/07/06 09:29:56;;;;;;;2.45;2.25;;;;;;;;;;5061516;28;20027;-73
2023/07/06 09:32:22;;;;;;;2.60;2.40;;;;;;;;;;5063306;28;20036;-75
2023/07/06 09:34:55;;;;;;;2.53;2.33;;;;;;;;;;5062862;28;20063;-74
2023/07/06 09:37:20;;;;;;;2.50;2.30;;;;;;;;;;5062931;28;20032;-76
2023/07/06 09:40:05;;;;;;;2.55;2.13;;;;;;;;;;5062945;28;20464;-74
2023/07/06 09:42:32;;;;;;;3.40;2.40;;;;;;;;;;5060337;28;20021;-74
2023/07/06 09:44:58;;;;;;;2.78;2.42;;;;;;;;;;5062521;28;20058;-76
2023/07/06 09:47:24;;;;;;;3.65;2.50;;;;;;;;;;5062472;28;20021;-76
2023/07/06 09:49:58;;;;;;;4.68;2.70;;;;;;;;;;5063532;28;20366;-75
2023/07/06 09:52:24;;;;;;;7.43;2.47;;;;;;;;;;5061187;28;20051;-74
2023/07/06 09:55:13;;;;;;;3.30;2.90;;;;;;;;;;5063756;28;20028;-74
2023/07/06 09:57:40;;;;;;;2.42;2.33;;;;;;;;;;5063689;28;20077;-76
2023/07/06 10:00:11;;;;;;;3.95;2.65;;;;;;;;;;5060583;28;20632;-75
2023/07/06 10:02:46;;;;;;;2.92;2.72;;;;;;;;;;5063342;28;20497;-76
2023/07/06 10:05:47;;;;;;;4.78;2.50;;;;;;;;;;5060248;28;20060;-76
2023/07/06 10:08:17;;;;;;;2.60;2.40;;;;;;;;;;5060629;28;20174;-74
2023/07/06 10:10:45;;;;;;;2.92;2.70;;;;;;;;;;5060876;28;20044;-77
2023/07/06 10:13:25;;;;;;;2.50;2.30;;;;;;;;;;5060939;28;20037;-76
2023/07/06 10:15:56;;;;;;;2.78;2.58;;;;;;;;;;5061677;28;20288;-76
2023/07/06 10:18:28;;;;;;;2.70;2.50;;;;;;;;;;5062598;28;20117;-76
2023/07/06 10:20:56;;;;;;;2.72;2.53;;;;;;;;;;5062423;28;20038;-74
2023/07/06 10:23:40;;;;;;;2.88;2.65;;;;;;;;;;5062440;28;20064;-75
2023/07/06 10:26:07;;;;;;;3.28;2.97;;;;;;;;;;5062137;28;20048;-76
2023/07/06 10:28:38;;;;;;;2.90;2.60;;;;;;;;;;5061795;28;20044;-75
2023/07/06 10:31:04;;;;;;;3.00;2.80;;;;;;;;;;5064130;28;21196;-77
2023/07/06 10:33:48;;;;;;;2.92;2.72;;;;;;;;;;5062530;28;20041;-74
2023/07/06 10:36:14;;;;;;;3.45;2.63;;;;;;;;;;5064098;28;20036;-76
2023/07/06 10:38:40;;;;;;;2.78;2.58;;;;;;;;;;5054315;28;21346;-76
2023/07/06 10:41:11;;;;;;;2.80;2.60;;;;;;;;;;5030990;28;20025;-76
2023/07/06 10:43:43;;;;;;;3.80;2.70;;;;;;;;;;5048584;28;20032;-76
2023/07/06 10:46:27;;;;;;;2.90;2.63;;;;;;;;;;5049295;28;20052;-76
2023/07/06 10:48:56;;;;;;;2.85;2.65;;;;;;;;;;5048556;28;20495;-76
2023/07/06 10:51:23;;;;;;;3.42;3.03;;;;;;;;;;5048594;28;20032;-77
2023/07/06 10:54:07;;;;;;;3.20;2.90;;;;;;;;;;5042956;28;20060;-75
2023/07/06 10:56:39;;;;;;;2.90;2.60;;;;;;;;;;5046746;28;20032;-76
2023/07/06 10:59:13;;;;;;;4.20;2.50;;;;;;;;;;5046212;28;20446;-76
2023/07/06 11:01:45;;;;;;;2.72;2.53;;;;;;;;;;5047490;28;20624;-76
2023/07/06 11:04:28;;;;;;;2.75;2.55;;;;;;;;;;5048764;28;20029;-78
2023/07/06 11:06:54;;;;;;;2.95;2.50;;;;;;;;;;5046997;28;20048;-76
2023/07/06 11:09:20;;;;;;;2.97;2.78;;;;;;;;;;5063187;28;20043;-76
2023/07/06 11:11:48;;;;;;;2.90;2.60;;;;;;;;;;5048168;28;20024;-77
2023/07/06 11:14:23;;;;;;;2.70;2.50;;;;;;;;;;5048822;28;20041;-77
2023/07/06 11:17:21;;;;;;;3.20;2.90;;;;;;;;;;5048196;28;20094;-76
2023/07/06 11:19:49;;;;;;;3.13;2.92;;;;;;;;;;5007464;28;20043;-77
2023/07/06 11:22:22;;;;;;;3.33;3.00;;;;;;;;;;5027128;28;20029;-77
2023/07/06 11:24:49;;;;;;;3.40;3.10;;;;;;;;;;5028589;28;20074;-76
2023/07/06 11:27:25;;;;;;;3.22;2.72;;;;;;;;;;5026511;28;20033;-76
2023/07/06 11:29:53;;;;;;;3.13;2.92;;;;;;;;;;5029005;28;20029;-77
2023/07/06 11:32:45;;;;;;;4.40;3.03;;;;;;;;;;5026617;28;20167;-75
2023/07/06 11:35:33;;;;;;;3.40;2.88;;;;;;;;;;4943552;28;20426;-75
2023/07/06 11:37:58;;;;;;;;;;;;;;;;;;4917293;28;20481;-77
2023/07/06 11:40:27;;;;;;;2.80;2.60;;;;;;;;;;4943435;28;20000;-77
2023/07/06 11:43:02;;;;;;;3.70;3.20;;;;;;;;;;4935199;28;20047;-75
2023/07/06 11:45:27;;;;;;;3.80;3.20;;;;;;;;;;4936618;28;20062;-76
2023/07/06 11:48:02;;;;;;;3.13;2.92;;;;;;;;;;4942608;28;20035;-75
2023/07/06 11:50:34;;;;;;;3.40;3.10;;;;;;;;;;4957240;28;20455;-75
2023/07/06 11:53:09;;;;;;;3.38;3.00;;;;;;;;;;4949022;28;20050;-76
2023/07/06 11:55:50;;;;;;;3.25;3.00;;;;;;;;;;4963393;28;20088;-77
2023/07/06 11:58:29;;;;;;;4.82;2.80;;;;;;;;;;4980750;28;20038;-76
2023/07/06 12:00:56;;;;;;;3.53;3.20;;;;;;;;;;4979501;28;20038;-76
2023/07/06 12:03:26;;;;;;;2.90;2.70;;;;;;;;;;4982171;28;20037;-75
2023/07/06 12:05:53;;;;;;;3.05;2.75;;;;;;;;;;4976615;28;20034;-77
2023/07/06 12:08:19;;;;;;;2.93;2.73;;;;;;;;;;4984919;28;20117;-76
2023/07/06 12:10:50;;;;;;;3.67;3.38;;;;;;;;;;4993432;28;20499;-75
2023/07/06 12:13:18;;;;;;;4.13;3.20;;;;;;;;;;5061728;28;20428;-77
2023/07/06 12:15:47;;;;;;;5.82;3.10;;;;;;;;;;5049168;28;20031;-75
2023/07/06 12:18:14;;;;;;;3.45;3.13;;;;;;;;;;5048395;28;20085;-74
2023/07/06 12:20:39;;;;;;;3.88;3.58;;;;;;;;;;5047553;28;20029;-76
2023/07/06 12:23:04;;;;;;;3.75;3.45;;;;;;;;;;5055580;28;21231;-77
2023/07/06 12:25:30;;;;;;;3.53;3.22;;;;;;;;;;5055026;28;20043;-76
2023/07/06 12:27:56;;;;;;;3.63;3.33;;;;;;;;;;5052167;28;20086;-75
2023/07/06 12:30:22;;;;;;;3.50;3.00;;;;;;;;;;5047257;28;20459;-75
2023/07/06 12:32:48;;;;;;;3.38;3.17;;;;;;;;;;5047841;28;20021;-76
2023/07/06 12:35:14;;;;;;;3.80;3.50;;;;;;;;;;5064249;28;20024;-81
2023/07/06 12:37:41;;;;;;;3.30;3.05;;;;;;;;;;5063619;28;20390;-80
2023/07/06 12:40:27;;;;;;;3.63;3.33;;;;;;;;;;5063067;28;20048;-77
2023/07/06 12:42:53;;;;;;;4.63;3.28;;;;;;;;;;5061221;28;20332;-79
2023/07/06 12:45:20;;;;;;;3.53;3.22;;;;;;;;;;5060246;28;20028;-77
2023/07/06 12:47:46;;;;;;;3.83;3.53;;;;;;;;;;5064923;28;20025;-79
2023/07/06 12:50:16;;;;;;;4.90;3.30;;;;;;;;;;5065767;28;20735;-81
2023/07/06 12:52:42;;;;;;;4.03;3.53;;;;;;;;;;5065129;28;20028;-79
2023/07/06 12:55:17;;;;;;;3.50;3.30;;;;;;;;;;5072442;28;20048;-82
2023/07/06 12:57:46;;;;;;;5.00;3.70;;;;;;;;;;5057697;28;20028;-78
2023/07/06 13:00:12;;;;;;;;;;;;;;;;;;5050768;28;20028;-77
2023/07/06 13:02:38;;;;;;;3.60;3.30;;;;;;;;;;5051936;28;19912;-79
2023/07/06 13:05:16;;;;;;;3.85;3.35;;;;;;;;;;5051484;28;20068;-80
2023/07/06 13:07:42;;;;;;;;;;;;;;;;;;5055728;28;20048;-79
2023/07/06 13:10:14;;;;;;;4.00;3.60;;;;;;;;;;5060081;28;20413;-81
2023/07/06 13:12:42;;;;;;;3.85;3.55;;;;;;;;;;5058217;28;21004;-80
2023/07/06 13:15:14;;;;;;;3.75;3.45;;;;;;;;;;5064374;28;20037;-83
2023/07/06 13:17:39;;;;;;;4.15;3.83;;;;;;;;;;5055156;28;20016;-79
2023/07/06 13:20:07;;;;;;;3.83;3.55;;;;;;;;;;5061411;28;20098;-79
2023/07/06 13:22:32;;;;;;;4.57;3.60;;;;;;;;;;5063559;28;20020;-81
2023/07/06 13:24:59;;;;;;;4.32;3.50;;;;;;;;;;5063857;28;20047;-79
2023/07/06 13:27:24;;;;;;;4.00;3.65;;;;;;;;;;5042867;28;21345;-76
2023/07/06 13:29:52;;;;;;;4.07;3.78;;;;;;;;;;5045419;28;20281;-77
2023/07/06 13:32:20;;;;;;;5.32;4.90;;;;;;;;;;5055384;28;20029;-78
2023/07/06 13:34:46;;;;;;;4.38;4.05;;;;;;;;;;5060179;28;20062;-79
2023/07/06 13:37:32;;;;;;;4.20;3.90;;;;;;;;;;5050670;28;20020;-77
2023/07/06 13:40:00;;;;;;;4.75;3.75;;;;;;;;;;5054698;28;20398;-75
2023/07/06 13:42:26;;;;;;;5.95;3.85;;;;;;;;;;5046280;28;20078;-75
2023/07/06 13:44:51;;;;;;;3.97;3.75;;;;;;;;;;5047116;28;20029;-73
2023/07/06 13:47:18;;;;;;;4.35;3.78;;;;;;;;;;5061700;28;20114;-76
2023/07/06 13:49:44;;;;;;;3.80;3.50;;;;;;;;;;5063040;28;20351;-77
2023/07/06 13:52:11;;;;;;;4.20;3.85;;;;;;;;;;5060035;28;20025;-77
2023/07/06 13:54:37;;;;;;;5.50;4.10;;;;;;;;;;5059566;28;20103;-76
2023/07/06 13:57:04;;;;;;;4.20;3.90;;;;;;;;;;5059811;28;20107;-76
2023/07/06 13:59:29;;;;;;;4.15;3.85;;;;;;;;;;5056360;28;20023;-76
2023/07/06 14:01:56;;;;;;;4.50;4.10;;;;;;;;;;5055435;28;20025;-76
2023/07/06 14:04:21;;;;;;;4.70;4.40;;;;;;;;;;5059513;28;20056;-77
2023/07/06 14:06:46;;;;;;;4.25;3.95;;;;;;;;;;5060947;28;20083;-78
2023/07/06 14:09:12;;;;;;;5.28;4.88;;;;;;;;;;5061364;28;20028;-79
2023/07/06 14:11:37;;;;;;;4.18;3.88;;;;;;;;;;5061492;28;20017;-75
2023/07/06 14:14:03;;;;;;;4.88;4.47;;;;;;;;;;5059294;28;20128;-76
2023/07/06 14:16:29;;;;;;;4.70;4.40;;;;;;;;;;5060449;28;20032;-78
2023/07/06 14:18:54;;;;;;;4.35;4.05;;;;;;;;;;5050093;28;20028;-77
2023/07/06 14:21:22;;;;;;;4.25;3.95;;;;;;;;;;5058753;28;20021;-77
2023/07/06 14:23:47;;;;;;;5.40;5.00;;;;;;;;;;5060634;28;20364;-77
2023/07/06 14:26:13;;;;;;;5.53;5.13;;;;;;;;;;5059318;28;20036;-77
2023/07/06 14:28:38;;;;;;;5.50;5.05;;;;;;;;;;5062069;28;20048;-76
2023/07/06 14:31:06;;;;;;;5.38;4.88;;;;;;;;;;5045850;28;20122;-74
2023/07/06 14:33:32;;;;;;;5.35;4.72;;;;;;;;;;5047739;28;20020;-76
2023/07/06 14:35:57;;;;;;;5.30;4.90;;;;;;;;;;5049528;28;20081;-75
2023/07/06 14:38:23;;;;;;;5.47;4.97;;;;;;;;;;5050296;28;20055;-81
2023/07/06 14:40:48;;;;;;;6.10;5.60;;;;;;;;;;5049272;28;20095;-76
2023/07/06 14:43:14;;;;;;;5.93;5.43;;;;;;;;;;5049658;28;20519;-80
2023/07/06 14:45:39;;;;;;;6.13;5.72;;;;;;;;;;5049605;28;20044;-78
2023/07/06 14:48:06;;;;;;;6.40;5.90;;;;;;;;;;5048861;28;22677;-76
2023/07/06 14:50:32;;;;;;;6.50;5.90;;;;;;;;;;5047807;28;20367;-77